Time;durP1;ratioP1;P1;durP2;ratioP2;P2;SDS_P1;SDS_P2;PMS_P1;PMS_P2;Temp;Humidity;BMP_temperature;BMP_pressure;BME280_temperature;BME280_humidity;BME280_pressure;Samples;Min_cycle;Max_cycle;Signal;HPM_P1;HPM_P2
2022/03/04 00:00:27;;;;;;;16.30;8.48;;;3.90;95.60;;;4.20;nan;100905.81;5003820;28;20206;-69
2022/03/04 00:02:55;;;;;;;14.75;7.70;;;3.90;95.90;;;4.12;nan;100906.16;5011456;28;20210;-69
2022/03/04 00:05:23;;;;;;;14.63;8.40;;;3.90;96.20;;;4.08;nan;100898.59;5009851;28;20206;-69
2022/03/04 00:07:50;;;;;;;14.68;7.75;;;3.80;96.60;;;4.07;nan;100904.69;5012137;28;20219;-69
2022/03/04 00:10:17;;;;;;;15.00;7.05;;;3.80;97.10;;;4.06;nan;100905.56;5007971;28;20660;-68
2022/03/04 00:12:44;;;;;;;18.27;9.05;;;3.80;97.20;;;4.03;nan;100908.25;5010150;28;20202;-69
2022/03/04 00:15:11;;;;;;;14.98;8.13;;;3.70;97.50;;;4.04;nan;100905.63;5011169;28;20187;-69
2022/03/04 00:17:38;;;;;;;15.23;8.65;;;3.80;97.80;;;4.12;nan;100906.16;4997098;28;20873;-68
2022/03/04 00:20:08;;;;;;;15.50;8.48;;;3.90;98.10;;;4.07;nan;100907.25;4991690;28;20195;-68
2022/03/04 00:22:35;;;;;;;12.35;6.68;;;3.80;98.50;;;4.08;nan;100902.03;5016988;28;20199;-68
2022/03/04 00:25:04;;;;;;;12.45;5.90;;;3.80;98.60;;;4.01;nan;100902.31;4975622;28;20222;-69
2022/03/04 00:27:31;;;;;;;14.00;7.90;;;3.80;99.00;;;3.94;nan;100907.75;4990830;28;20246;-70
2022/03/04 00:29:58;;;;;;;15.23;7.50;;;3.70;99.40;;;3.86;nan;100906.38;4991072;28;20285;-67
2022/03/04 00:32:25;;;;;;;15.88;8.48;;;3.70;99.80;;;3.83;nan;100906.50;4990695;28;20210;-68
2022/03/04 00:34:53;;;;;;;23.20;8.13;;;3.60;99.90;;;3.75;nan;100906.78;4992516;28;20183;-68
2022/03/04 00:37:20;;;;;;;16.58;8.25;;;3.50;99.90;;;3.67;nan;100910.56;4991633;28;20211;-69
2022/03/04 00:39:47;;;;;;;12.63;7.80;;;3.50;99.90;;;3.68;nan;100917.44;5001195;28;20214;-70
2022/03/04 00:42:14;;;;;;;14.68;7.68;;;3.40;99.90;;;3.67;nan;100913.16;4993649;28;20195;-68
2022/03/04 00:44:41;;;;;;;14.73;8.38;;;3.40;99.90;;;3.67;nan;100911.44;5007848;28;20203;-70
2022/03/04 00:47:08;;;;;;;16.70;7.95;;;3.40;99.90;;;3.71;nan;100909.56;5006829;28;20711;-68
2022/03/04 00:49:35;;;;;;;14.30;8.25;;;3.50;99.90;;;3.71;nan;100909.56;5009801;28;20210;-70
2022/03/04 00:52:03;;;;;;;11.30;7.18;;;3.50;99.90;;;3.67;nan;100910.56;5010783;28;20210;-69
2022/03/04 00:54:30;;;;;;;16.40;9.32;;;3.40;99.90;;;3.63;nan;100906.44;5007505;28;20194;-69
2022/03/04 00:56:57;;;;;;;12.88;7.90;;;3.40;99.90;;;3.59;nan;100910.03;5008239;28;20679;-69
2022/03/04 00:59:24;;;;;;;19.15;9.10;;;3.40;99.90;;;3.62;nan;100904.78;4990398;28;20222;-68
2022/03/04 01:01:52;;;;;;;11.88;7.00;;;3.40;99.90;;;3.64;nan;100906.38;5007106;28;20195;-67
2022/03/04 01:04:19;;;;;;;17.83;8.30;;;3.40;99.90;;;3.65;nan;100912.38;5000622;28;20222;-68
2022/03/04 01:06:48;;;;;;;18.30;8.45;;;3.40;99.90;;;3.66;nan;100912.31;4990280;28;20601;-68
2022/03/04 01:09:15;;;;;;;15.60;8.35;;;3.40;99.90;;;3.61;nan;100915.97;5003801;28;20707;-68
2022/03/04 01:11:42;;;;;;;11.75;6.95;;;3.40;99.90;;;3.66;nan;100916.66;4988276;28;20199;-68
2022/03/04 01:14:09;;;;;;;14.13;7.10;;;3.40;99.90;;;3.62;nan;100915.91;5005733;28;20207;-67
2022/03/04 01:16:37;;;;;;;15.38;7.18;;;3.40;99.90;;;3.56;nan;100921.31;5004311;28;20202;-68
2022/03/04 01:19:04;;;;;;;12.18;6.38;;;3.40;99.90;;;3.57;nan;100912.69;5007424;28;20336;-69
2022/03/04 01:21:33;;;;;;;13.35;7.53;;;3.40;99.90;;;3.50;nan;100915.53;5009018;28;20191;-68
2022/03/04 01:24:00;;;;;;;11.98;7.00;;;3.30;99.90;;;3.46;nan;100906.25;5006201;28;20206;-67
2022/03/04 01:26:27;;;;;;;15.23;7.80;;;3.20;99.90;;;3.45;nan;100912.31;4993289;28;20234;-68
2022/03/04 01:28:54;;;;;;;13.98;8.93;;;3.20;99.90;;;3.46;nan;100911.41;5044593;23;20234;-69
2022/03/04 01:31:21;;;;;;;14.27;8.38;;;3.30;99.90;;;3.39;nan;100899.63;5020542;28;20692;-69
2022/03/04 01:33:48;;;;;;;17.75;9.27;;;3.20;99.90;;;3.29;nan;100904.31;5018124;28;20737;-68
2022/03/04 01:36:15;;;;;;;16.80;8.10;;;3.10;99.90;;;3.23;nan;100907.13;5025250;28;20206;-67
2022/03/04 01:38:42;;;;;;;12.40;7.55;;;3.00;99.90;;;3.20;nan;100907.22;5014633;28;20229;-68
2022/03/04 01:41:09;;;;;;;14.05;7.82;;;3.00;99.90;;;3.24;nan;100907.97;4998206;28;20199;-69
2022/03/04 01:43:36;;;;;;;15.50;8.02;;;3.00;99.90;;;3.24;nan;100910.56;4991606;28;20266;-67
2022/03/04 01:46:17;;;;;;;16.67;8.55;;;3.00;99.90;;;3.10;nan;100899.00;4990426;28;20223;-67
2022/03/04 01:48:46;;;;;;;15.85;8.05;;;2.90;99.90;;;3.07;nan;100903.41;4991627;28;20435;-67
2022/03/04 01:51:14;;;;;;;15.00;7.38;;;2.80;99.90;;;3.07;nan;100898.25;4993421;28;20199;-67
2022/03/04 01:53:41;;;;;;;14.05;8.35;;;2.80;99.90;;;2.95;nan;100899.56;4998476;28;20411;-69
2022/03/04 01:56:08;;;;;;;14.88;8.63;;;2.80;99.90;;;3.03;nan;100891.53;5014872;28;20221;-67
2022/03/04 01:58:35;;;;;;;14.60;8.30;;;2.80;99.90;;;2.89;nan;100894.66;5014879;28;20230;-67
2022/03/04 02:01:04;;;;;;;14.77;8.88;;;2.70;99.90;;;2.99;nan;100897.72;5012068;28;20209;-68
2022/03/04 02:03:32;;;;;;;14.35;6.65;;;2.80;99.90;;;2.94;nan;100905.59;5013250;28;20252;-66
2022/03/04 02:05:59;;;;;;;15.90;7.95;;;2.70;99.90;;;2.88;nan;100900.69;5013954;28;20230;-69
2022/03/04 02:08:26;;;;;;;16.75;8.32;;;2.70;99.90;;;2.84;nan;100893.97;5013988;28;20234;-66
2022/03/04 02:10:53;;;;;;;14.82;8.27;;;2.60;99.90;;;2.84;nan;100900.84;5013565;28;20214;-68
2022/03/04 02:13:20;;;;;;;13.90;7.32;;;2.60;99.90;;;2.87;nan;100896.44;5005558;28;20674;-67
2022/03/04 02:15:48;;;;;;;14.43;8.07;;;2.70;99.90;;;2.81;nan;100899.22;5012501;28;20207;-67
2022/03/04 02:18:17;;;;;;;13.45;7.93;;;2.60;99.90;;;2.86;nan;100894.75;5013565;28;20590;-66
2022/03/04 02:20:48;;;;;;;12.80;7.28;;;2.60;99.90;;;2.84;nan;100896.53;5013379;28;20211;-66
2022/03/04 02:23:16;;;;;;;13.88;7.75;;;2.70;99.90;;;2.83;nan;100897.41;5011258;28;20203;-69
2022/03/04 02:25:50;;;;;;;13.18;7.28;;;2.60;99.90;;;2.79;nan;100901.00;5012663;28;20202;-69
2022/03/04 02:28:20;;;;;;;15.50;9.38;;;2.60;99.90;;;2.85;nan;100903.38;5012487;28;20239;-68
2022/03/04 02:30:47;;;;;;;14.57;8.18;;;2.60;99.90;;;2.84;nan;100898.28;5013529;28;20206;-66
2022/03/04 02:33:14;;;;;;;11.38;6.70;;;2.60;99.90;;;2.80;nan;100900.13;5012616;28;20260;-70
2022/03/04 02:35:42;;;;;;;14.57;7.43;;;2.60;99.90;;;2.72;nan;100891.84;5013555;28;20207;-68
2022/03/04 02:38:09;;;;;;;13.25;7.40;;;2.50;99.90;;;2.74;nan;100900.34;5013615;28;20230;-67
2022/03/04 02:40:37;;;;;;;16.20;8.20;;;2.50;99.90;;;2.65;nan;100897.25;4993088;28;20583;-69
2022/03/04 02:43:05;;;;;;;15.10;8.35;;;2.50;99.90;;;2.64;nan;100896.41;5004284;28;20222;-70
2022/03/04 02:45:34;;;;;;;14.95;8.80;;;2.40;99.90;;;2.67;nan;100896.28;5011528;28;20215;-69
2022/03/04 02:48:01;;;;;;;16.15;8.15;;;2.50;99.90;;;2.61;nan;100900.81;5008361;28;20235;-69
2022/03/04 02:50:28;;;;;;;14.38;7.35;;;2.40;99.90;;;2.58;nan;100899.19;4993167;28;20672;-68
2022/03/04 02:52:56;;;;;;;11.82;7.57;;;2.40;99.90;;;2.60;nan;100894.00;4995992;28;20218;-67
2022/03/04 02:55:23;;;;;;;17.02;7.25;;;2.40;99.90;;;2.56;nan;100895.84;5013509;28;20211;-68
2022/03/04 02:57:50;;;;;;;19.80;9.18;;;2.40;99.90;;;2.62;nan;100897.38;5013857;28;20210;-69
2022/03/04 03:00:17;;;;;;;18.48;10.02;;;2.50;99.90;;;2.49;nan;100886.66;5012891;28;20678;-67
2022/03/04 03:02:45;;;;;;;20.42;9.35;;;2.40;99.90;;;2.57;nan;100888.94;5003462;28;20207;-69
2022/03/04 03:05:12;;;;;;;17.15;8.80;;;2.40;99.90;;;2.58;nan;100886.31;5012203;28;20799;-66
2022/03/04 03:07:40;;;;;;;18.27;9.90;;;2.40;99.90;;;2.55;nan;100893.31;4996554;28;20226;-68
2022/03/04 03:10:09;;;;;;;19.75;10.30;;;2.30;99.90;;;2.51;nan;100895.16;5011265;28;20195;-66
2022/03/04 03:12:38;;;;;;;17.90;9.40;;;2.40;99.90;;;2.45;nan;100892.78;5013633;28;20206;-68
2022/03/04 03:15:06;;;;;;;18.73;9.32;;;2.30;99.90;;;2.40;nan;100884.41;5013388;28;20203;-69
2022/03/04 03:17:33;;;;;;;16.70;8.80;;;2.20;99.90;;;2.38;nan;100882.75;5011680;28;20643;-67
2022/03/04 03:20:01;;;;;;;21.10;10.40;;;2.30;99.90;;;2.38;nan;100883.59;5011952;28;20211;-70
2022/03/04 03:22:28;;;;;;;14.23;7.00;;;2.20;99.90;;;2.48;nan;100886.69;5010987;28;20199;-67
2022/03/04 03:24:55;;;;;;;17.25;10.07;;;2.30;99.90;;;2.29;nan;100883.91;5010880;28;20213;-69
2022/03/04 03:27:22;;;;;;;16.23;9.30;;;2.20;99.90;;;2.28;nan;100885.63;5011850;28;20230;-68
2022/03/04 03:29:50;;;;;;;19.95;10.75;;;2.10;99.90;;;2.24;nan;100884.06;5010765;28;24451;-67
2022/03/04 03:32:17;;;;;;;18.65;7.70;;;2.10;99.90;;;2.13;nan;100885.34;5013593;28;20249;-68
2022/03/04 03:34:44;;;;;;;22.85;9.07;;;2.00;99.90;;;2.11;nan;100885.38;5012955;28;20210;-67
2022/03/04 03:37:11;;;;;;;20.40;9.10;;;2.00;99.90;;;2.05;nan;100889.88;5011976;28;20211;-67
2022/03/04 03:39:40;;;;;;;18.48;10.23;;;1.90;99.90;;;2.13;nan;100890.47;5002056;28;20266;-66
2022/03/04 03:42:07;;;;;;;17.35;9.55;;;2.00;99.90;;;2.19;nan;100891.09;5012128;28;20675;-67
2022/03/04 03:44:34;;;;;;;18.90;8.98;;;2.00;99.90;;;2.25;nan;100885.75;5010831;28;20698;-69
2022/03/04 03:47:02;;;;;;;17.00;9.00;;;2.10;99.90;;;2.21;nan;100880.75;5011890;28;20937;-70
2022/03/04 03:49:29;;;;;;;16.60;9.15;;;2.00;99.90;;;2.17;nan;100877.44;4993224;28;20234;-67
2022/03/04 03:51:56;;;;;;;18.70;8.80;;;2.00;99.90;;;2.21;nan;100883.34;4992994;28;20207;-69
2022/03/04 03:54:23;;;;;;;18.48;8.25;;;2.10;99.90;;;2.20;nan;100886.78;5005169;28;20202;-69
2022/03/04 03:56:50;;;;;;;14.73;6.97;;;2.00;99.90;;;2.11;nan;100885.38;5009810;28;20271;-67
2022/03/04 03:59:17;;;;;;;14.25;8.18;;;2.00;99.90;;;2.18;nan;100889.44;5010045;28;20465;-67
2022/03/04 04:01:44;;;;;;;12.63;7.53;;;2.00;99.90;;;2.05;nan;100895.88;5010545;28;20656;-69
2022/03/04 04:04:14;;;;;;;17.25;8.65;;;1.90;99.90;;;2.06;nan;100891.56;5011616;28;20636;-66
2022/03/04 04:06:42;;;;;;;15.85;8.63;;;1.90;99.90;;;2.03;nan;100900.22;5010835;28;20238;-67
2022/03/04 04:09:10;;;;;;;14.55;7.57;;;1.90;99.90;;;1.97;nan;100899.59;5011774;28;20750;-67
2022/03/04 04:11:39;;;;;;;16.98;9.00;;;1.80;99.90;;;1.97;nan;100899.59;4998184;28;20203;-66
2022/03/04 04:14:08;;;;;;;21.88;11.75;;;1.80;99.90;;;1.99;nan;100902.94;4991797;28;20207;-68
2022/03/04 04:16:36;;;;;;;17.15;10.15;;;1.80;99.90;;;2.03;nan;100917.38;4992532;28;20215;-69
2022/03/04 04:19:04;;;;;;;19.13;10.07;;;1.90;99.90;;;2.10;nan;100911.16;4992138;28;20237;-67
2022/03/04 04:21:34;;;;;;;26.00;11.63;;;1.90;99.90;;;2.14;nan;100908.44;4993074;28;20209;-67
2022/03/04 04:24:01;;;;;;;20.33;11.82;;;2.00;99.90;;;2.11;nan;100907.69;5003538;28;20203;-66
2022/03/04 04:26:28;;;;;;;23.05;12.20;;;2.00;99.90;;;2.06;nan;100915.59;4991698;28;20623;-69
2022/03/04 04:28:55;;;;;;;21.48;12.07;;;2.00;99.90;;;2.10;nan;100917.16;4989556;28;20307;-68
2022/03/04 04:31:22;;;;;;;23.42;12.05;;;2.00;99.90;;;2.10;nan;100911.16;4991034;28;20297;-66
2022/03/04 04:33:50;;;;;;;21.67;12.00;;;2.00;99.90;;;2.04;nan;100919.94;5005578;28;20206;-69
2022/03/04 04:36:18;;;;;;;21.15;11.77;;;1.90;99.90;;;2.01;nan;100921.75;5012239;28;20202;-70
2022/03/04 04:38:45;;;;;;;22.23;12.10;;;1.90;99.90;;;1.99;nan;100919.22;5010600;28;20233;-67
2022/03/04 04:41:12;;;;;;;18.85;11.18;;;1.90;99.90;;;1.99;nan;100919.22;5010113;28;20210;-68
2022/03/04 04:43:39;;;;;;;18.63;9.93;;;1.90;99.90;;;1.93;nan;100923.72;5005227;28;20260;-68
2022/03/04 04:46:06;;;;;;;20.40;10.00;;;1.80;99.90;;;1.86;nan;100930.81;4994103;28;20596;-67
2022/03/04 04:48:33;;;;;;;16.08;8.88;;;1.70;99.90;;;1.85;nan;100930.84;5005180;28;20239;-66
2022/03/04 04:51:01;;;;;;;18.65;11.07;;;1.80;99.90;;;1.87;nan;100929.94;5010539;28;20252;-66
2022/03/04 04:53:30;;;;;;;22.48;11.25;;;1.80;99.90;;;1.92;nan;100933.19;5024763;28;20207;-67
2022/03/04 04:55:58;;;;;;;23.23;11.82;;;1.80;99.90;;;1.84;nan;100929.16;5009404;28;20206;-67
2022/03/04 04:58:25;;;;;;;18.83;10.60;;;1.80;99.90;;;1.79;nan;100936.19;5010744;28;20235;-67
2022/03/04 05:00:55;;;;;;;18.38;10.50;;;1.70;99.90;;;1.76;nan;100936.28;5010281;28;20210;-67
2022/03/04 05:03:24;;;;;;;23.58;10.95;;;1.70;99.90;;;1.70;nan;100939.06;5008913;28;20229;-67
2022/03/04 05:05:52;;;;;;;23.38;11.85;;;1.60;99.90;;;1.76;nan;100937.13;5009641;28;20206;-69
2022/03/04 05:08:20;;;;;;;19.42;11.18;;;1.60;99.90;;;1.79;nan;100939.59;5008115;28;20393;-67
2022/03/04 05:10:47;;;;;;;19.77;11.73;;;1.70;99.90;;;1.72;nan;100939.84;5009923;28;20640;-66
2022/03/04 05:13:15;;;;;;;21.52;11.90;;;1.60;99.90;;;1.76;nan;100936.28;5009930;28;20199;-70
2022/03/04 05:15:42;;;;;;;22.75;12.00;;;1.60;99.90;;;1.69;nan;100947.66;5011975;28;20219;-68
2022/03/04 05:18:09;;;;;;;17.40;9.50;;;1.60;99.90;;;1.67;nan;100949.41;5009564;28;20222;-69
2022/03/04 05:20:36;;;;;;;18.65;9.40;;;1.50;99.90;;;1.73;nan;100946.66;5009559;28;20210;-67
2022/03/04 05:23:03;;;;;;;20.48;10.43;;;1.60;99.90;;;1.75;nan;100948.31;5011046;28;20221;-66
2022/03/04 05:25:30;;;;;;;23.65;10.85;;;1.60;99.90;;;1.72;nan;100960.41;5011397;28;20202;-68
2022/03/04 05:27:57;;;;;;;23.05;12.25;;;1.60;99.90;;;1.65;nan;100958.91;5010373;28;20237;-67
2022/03/04 05:30:25;;;;;;;26.27;12.95;;;1.50;99.90;;;1.67;nan;100957.13;5016075;28;20210;-67
2022/03/04 05:32:52;;;;;;;29.23;13.60;;;1.50;99.90;;;1.63;nan;100965.84;5017257;28;20579;-70
2022/03/04 05:35:19;;;;;;;22.70;11.95;;;1.50;99.90;;;1.61;nan;100963.31;4995253;28;20199;-66
2022/03/04 05:37:46;;;;;;;23.55;11.45;;;1.50;99.90;;;1.51;nan;100967.88;5009358;28;20206;-67
2022/03/04 05:40:13;;;;;;;21.55;10.20;;;1.40;99.90;;;1.58;nan;100970.31;5005229;28;20678;-67
2022/03/04 05:42:40;;;;;;;20.50;9.45;;;1.40;99.90;;;1.61;nan;100967.63;5000575;28;20675;-70
2022/03/04 05:45:07;;;;;;;18.75;9.80;;;1.50;99.90;;;1.55;nan;100968.66;5015627;28;20210;-67
2022/03/04 05:47:34;;;;;;;19.80;10.40;;;1.40;99.90;;;1.56;nan;100970.31;5013368;28;20219;-69
2022/03/04 05:50:01;;;;;;;18.08;9.18;;;1.40;99.90;;;1.48;nan;100968.00;5007728;28;20198;-67
2022/03/04 05:52:28;;;;;;;19.52;11.10;;;1.40;99.90;;;1.47;nan;100971.44;5017162;28;20212;-69
2022/03/04 05:54:55;;;;;;;21.08;11.25;;;1.30;99.90;;;1.44;nan;100970.69;5005921;28;20201;-67
2022/03/04 05:57:22;;;;;;;21.10;12.60;;;1.30;99.90;;;1.43;nan;100963.84;5008579;28;20703;-67
2022/03/04 05:59:49;;;;;;;21.10;10.85;;;1.30;99.90;;;1.49;nan;100966.28;5009151;28;20222;-68
2022/03/04 06:02:16;;;;;;;26.95;13.40;;;1.40;99.90;;;1.55;nan;100971.22;5012966;28;20206;-69
2022/03/04 06:04:43;;;;;;;25.10;12.52;;;1.50;99.90;;;1.58;nan;100969.38;5016312;28;20633;-67
2022/03/04 06:07:10;;;;;;;22.85;12.15;;;1.50;99.90;;;1.58;nan;100975.44;5014597;28;20230;-68
2022/03/04 06:09:37;;;;;;;25.30;12.57;;;1.50;99.90;;;1.55;nan;100971.22;5006589;28;20214;-69
2022/03/04 06:12:04;;;;;;;22.88;11.45;;;1.40;99.90;;;1.58;nan;100973.69;5013773;28;20253;-67
2022/03/04 06:14:31;;;;;;;17.95;8.88;;;1.50;99.90;;;1.53;nan;100981.53;4999345;28;20459;-69
2022/03/04 06:16:58;;;;;;;16.75;8.60;;;1.50;99.90;;;1.54;nan;100985.81;5016037;28;20222;-68
2022/03/04 06:19:31;;;;;;;22.45;11.55;;;1.40;99.90;;;1.69;nan;100981.06;5006928;28;20619;-67
2022/03/04 06:21:58;;;;;;;23.63;13.07;;;1.60;99.90;;;1.81;nan;100986.69;5015812;28;20207;-67
2022/03/04 06:24:25;;;;;;;21.65;11.77;;;1.70;99.90;;;1.95;nan;100996.56;5011896;28;20258;-67
2022/03/04 06:26:52;;;;;;;20.20;11.00;;;1.90;99.90;;;2.16;nan;100991.59;5004142;28;20203;-67
2022/03/04 06:29:19;;;;;;;22.45;11.68;;;2.10;99.90;;;2.30;nan;100993.72;5016877;28;20245;-67
2022/03/04 06:31:46;;;;;;;20.23;7.82;;;2.30;99.90;;;2.52;nan;101001.59;5015443;28;20213;-70
2022/03/04 06:34:13;;;;;;;25.83;13.10;;;2.60;99.90;;;2.82;nan;101004.00;5015917;28;20406;-68
2022/03/04 06:36:40;;;;;;;24.00;13.18;;;2.90;99.90;;;2.97;nan;101000.03;5015631;28;20210;-67
2022/03/04 06:39:07;;;;;;;24.67;13.55;;;3.10;99.90;;;3.22;nan;101010.31;5009008;28;20225;-68
2022/03/04 06:41:37;;;;;;;23.73;12.82;;;3.30;99.90;;;3.49;nan;101014.50;5011179;28;20211;-71
2022/03/04 06:44:04;;;;;;;23.40;10.82;;;3.60;99.90;;;4.07;nan;101026.84;5005156;28;20195;-72
2022/03/04 06:46:31;;;;;;;20.08;10.13;;;4.20;99.90;;;4.76;nan;101025.78;5013009;28;20569;-70
2022/03/04 06:48:58;;;;;;;26.33;11.82;;;5.00;99.90;;;5.55;nan;101022.31;5006340;28;20713;-69
2022/03/04 06:51:25;;;;;;;20.50;12.07;;;6.00;99.90;;;6.13;nan;101036.88;5002960;28;20689;-67
2022/03/04 06:53:52;;;;;;;19.60;10.55;;;6.70;97.70;;;6.69;nan;101044.50;5007682;28;20207;-68
2022/03/04 06:56:19;;;;;;;24.95;12.60;;;7.20;95.70;;;7.25;nan;101041.63;5010986;28;20687;-66
2022/03/04 06:58:50;;;;;;;23.00;11.88;;;7.70;94.20;;;7.83;nan;101043.69;5011755;28;20236;-69
2022/03/04 07:01:17;;;;;;;20.80;9.85;;;8.30;92.60;;;8.52;nan;101048.50;5006767;28;20211;-67
2022/03/04 07:03:44;;;;;;;24.20;13.55;;;9.00;90.30;;;9.05;nan;101048.84;4976381;28;20219;-67
2022/03/04 07:06:11;;;;;;;24.50;12.55;;;9.60;84.20;;;9.49;nan;101045.38;4993206;28;20634;-68
2022/03/04 07:08:38;;;;;;;24.27;13.47;;;10.10;80.50;;;9.77;nan;101051.41;4993511;28;20250;-67
2022/03/04 07:11:05;;;;;;;23.63;13.90;;;10.50;75.80;;;10.16;nan;101063.72;5003666;28;20660;-68
2022/03/04 07:13:33;;;;;;;27.60;13.47;;;10.70;74.00;;;10.14;nan;101065.59;5000226;28;20637;-69
2022/03/04 07:16:01;;;;;;;21.27;12.33;;;10.90;71.10;;;10.67;nan;101065.59;4991518;28;20629;-70
2022/03/04 07:18:29;;;;;;;19.73;11.27;;;11.20;69.80;;;11.15;nan;101073.72;4991481;28;20723;-72
2022/03/04 07:20:59;;;;;;;22.70;13.73;;;11.60;67.90;;;11.33;nan;101067.28;5006798;28;20622;-68
2022/03/04 07:23:26;;;;;;;23.43;13.83;;;11.70;66.00;;;10.87;nan;101072.97;5008854;28;20629;-72
2022/03/04 07:25:53;;;;;;;23.70;13.33;;;11.50;64.90;;;10.99;nan;101070.50;5010511;28;20641;-67
2022/03/04 07:28:20;;;;;;;23.53;13.47;;;11.50;65.00;;;11.29;nan;101069.25;4995703;22;20684;-67
2022/03/04 07:30:47;;;;;;;24.97;13.90;;;11.60;65.20;;;11.87;nan;101075.72;5010475;28;20652;-68
2022/03/04 07:33:14;;;;;;;27.80;14.33;;;12.20;63.90;;;12.37;nan;101078.19;5011580;28;20625;-67
2022/03/04 07:35:45;;;;;;;22.43;13.73;;;12.80;61.80;;;12.76;nan;101071.81;4996125;28;21225;-70
2022/03/04 07:38:13;;;;;;;23.23;14.00;;;13.10;60.30;;;13.58;nan;101069.03;5011437;28;20640;-70
2022/03/04 07:40:43;;;;;;;28.93;15.40;;;13.90;58.60;;;14.20;nan;101074.59;4985562;28;21280;-70
2022/03/04 07:43:10;;;;;;;27.23;15.50;;;14.70;55.90;;;14.46;nan;101070.75;4975023;28;20637;-69
2022/03/04 07:45:37;;;;;;;24.83;15.67;;;15.00;54.30;;;15.05;nan;101074.53;4939886;28;21246;-70
2022/03/04 07:48:05;;;;;;;27.20;16.73;;;15.70;52.80;;;14.99;nan;101082.91;4956359;28;20671;-70
2022/03/04 07:50:32;;;;;;;28.63;16.60;;;16.10;51.00;;;15.75;nan;101086.97;4951586;28;20649;-69
2022/03/04 07:52:59;;;;;;;29.50;16.43;;;16.60;50.20;;;16.67;nan;101095.41;4987256;28;20616;-71
2022/03/04 07:55:26;;;;;;;31.10;17.50;;;17.30;48.90;;;17.11;nan;101093.16;4971875;28;20622;-70
2022/03/04 07:57:55;;;;;;;26.10;17.00;;;17.80;47.60;;;17.91;nan;101088.25;4965289;28;20639;-70
2022/03/04 08:00:24;;;;;;;29.80;18.00;;;18.80;45.60;;;18.34;nan;101097.16;4971262;28;20685;-69
2022/03/04 08:02:53;;;;;;;27.60;17.57;;;19.20;44.60;;;18.39;nan;101100.19;4990504;28;20766;-69
2022/03/04 08:05:21;;;;;;;28.33;18.77;;;19.60;43.30;;;17.85;nan;101100.19;4951827;28;20643;-70
2022/03/04 08:07:49;;;;;;;25.80;17.83;;;19.50;42.80;;;18.79;nan;101109.53;4973367;28;20673;-69
2022/03/04 08:10:16;;;;;;;29.10;18.07;;;19.70;42.90;;;19.43;nan;101115.38;4973612;28;20663;-67
2022/03/04 08:12:43;;;;;;;30.40;18.27;;;20.30;41.90;;;20.37;nan;101114.34;4974689;28;20607;-71
2022/03/04 08:15:12;;;;;;;25.17;18.30;;;21.30;40.80;;;20.73;nan;101121.06;4991374;28;20684;-69
2022/03/04 08:17:40;;;;;;;24.80;18.13;;;21.80;39.80;;;20.68;nan;101117.22;4974258;28;20631;-69
2022/03/04 08:20:08;;;;;;;25.87;19.30;;;22.40;38.80;;;20.33;nan;101113.03;4974136;28;20689;-70
2022/03/04 08:22:36;;;;;;;27.23;18.80;;;21.90;38.80;;;20.63;nan;101119.56;4963307;28;20632;-70
2022/03/04 08:25:05;;;;;;;25.53;17.17;;;22.00;38.80;;;21.00;nan;101119.91;4982192;28;20638;-69
2022/03/04 08:27:41;;;;;;;27.43;17.67;;;22.30;38.30;;;21.10;nan;101119.78;4971885;28;20993;-69
2022/03/04 08:30:12;;;;;;;26.90;19.07;;;22.60;38.10;;;21.82;nan;101117.03;4974030;28;20891;-71
2022/03/04 08:32:40;;;;;;;27.40;18.80;;;23.30;37.30;;;22.18;nan;101114.72;4973732;28;20619;-69
2022/03/04 08:35:08;;;;;;;29.67;18.93;;;24.00;36.60;;;22.76;nan;101114.25;4972366;28;20627;-69
2022/03/04 08:37:36;;;;;;;27.67;18.30;;;24.70;35.90;;;23.62;nan;101122.63;4972488;28;20634;-69
2022/03/04 08:40:05;;;;;;;25.73;17.70;;;25.20;35.40;;;24.12;nan;101119.25;4958300;28;20658;-70
2022/03/04 08:42:32;;;;;;;29.27;19.00;;;26.10;34.50;;;23.99;nan;101109.22;4958506;28;20638;-69
2022/03/04 08:44:59;;;;;;;23.23;16.50;;;26.20;34.10;;;24.80;nan;101118.81;4991555;28;20610;-70
2022/03/04 08:47:26;;;;;;;24.10;18.10;;;27.00;33.80;;;25.69;nan;101126.13;4959924;28;21190;-70
2022/03/04 08:49:53;;;;;;;27.97;19.73;;;27.70;33.30;;;25.70;nan;101117.94;4954461;28;20678;-70
2022/03/04 08:52:21;;;;;;;25.60;18.17;;;28.10;32.80;;;26.64;nan;101117.06;4967097;28;20634;-69
2022/03/04 08:54:48;;;;;;;27.07;20.50;;;29.00;32.30;;;26.73;nan;101107.88;4971287;28;20614;-70
2022/03/04 08:57:15;;;;;;;31.27;21.80;;;29.60;31.50;;;26.65;nan;101113.38;4970788;28;20632;-69
2022/03/04 08:59:42;;;;;;;27.13;20.27;;;29.80;31.00;;;26.97;nan;101114.47;4957718;28;20665;-70
2022/03/04 09:02:09;;;;;;;27.50;20.23;;;29.60;31.20;;;27.40;nan;101115.75;4957904;28;20638;-69
2022/03/04 09:04:37;;;;;;;28.37;20.57;;;30.30;30.60;;;28.06;nan;101127.16;4957996;28;21194;-70
2022/03/04 09:07:06;;;;;;;31.67;20.70;;;30.70;30.60;;;27.99;nan;101122.84;4987274;28;20633;-69
2022/03/04 09:09:36;;;;;;;26.27;20.20;;;31.30;30.00;;;28.63;nan;101115.53;4985395;28;20680;-71
2022/03/04 09:12:04;;;;;;;26.53;20.40;;;31.90;29.90;;;29.02;nan;101120.63;4980513;28;20698;-69
2022/03/04 09:14:31;;;;;;;29.47;19.80;;;32.30;29.50;;;27.80;nan;101119.16;4954791;28;20615;-69
2022/03/04 09:16:58;;;;;;;25.20;19.03;;;31.60;29.40;;;28.42;nan;101123.88;4983427;28;20630;-70
2022/03/04 09:19:25;;;;;;;29.93;21.23;;;31.80;29.30;;;28.22;nan;101120.47;4990961;28;20650;-69
2022/03/04 09:22:12;;;;;;;24.87;18.33;;;31.60;29.30;;;28.01;nan;101118.06;4963066;28;20632;-69
2022/03/04 09:24:39;;;;;;;26.07;19.80;;;31.70;29.30;;;29.23;nan;101115.94;4971914;28;20625;-70
2022/03/04 09:27:07;;;;;;;29.80;22.43;;;32.50;29.10;;;28.68;nan;101113.03;4961571;28;21289;-69
2022/03/04 09:29:35;;;;;;;32.90;22.20;;;32.40;29.00;;;28.39;nan;101119.75;4988020;28;20677;-69
2022/03/04 09:32:02;;;;;;;30.23;21.57;;;32.50;29.00;;;29.59;nan;101118.69;4986149;28;20982;-69
2022/03/04 09:34:29;;;;;;;27.27;21.00;;;33.10;29.40;;;30.69;nan;101107.59;4996648;28;20700;-71
2022/03/04 09:36:58;;;;;;;25.57;19.67;;;34.00;28.60;;;31.34;nan;101109.25;4968305;28;20635;-70
2022/03/04 09:39:26;;;;;;;27.50;21.70;;;34.80;28.20;;;31.43;nan;101106.22;4972591;28;21009;-70
2022/03/04 09:41:53;;;;;;;30.20;22.00;;;34.90;28.10;;;31.67;nan;101110.53;4982562;28;20971;-70
2022/03/04 09:44:20;;;;;;;29.50;21.43;;;35.10;27.90;;;31.17;nan;101104.78;4959109;28;21198;-69
2022/03/04 09:46:47;;;;;;;29.77;21.00;;;35.10;27.60;;;31.07;nan;101099.94;4991963;28;21207;-69
2022/03/04 09:49:17;;;;;;;29.40;22.90;;;34.70;27.70;;;32.39;nan;101103.66;4971819;28;20678;-69
2022/03/04 09:51:45;;;;;;;29.40;24.00;;;35.60;27.70;;;32.67;nan;101096.34;4969106;28;20995;-70
2022/03/04 09:54:13;;;;;;;29.10;23.00;;;36.10;27.40;;;32.03;nan;101097.56;4960490;28;20653;-69
2022/03/04 09:56:40;;;;;;;26.93;19.60;;;36.00;27.10;;;32.02;nan;101098.63;4979362;28;20633;-70
2022/03/04 09:59:07;;;;;;;24.70;19.97;;;35.70;27.20;;;32.84;nan;101091.78;4972738;28;20649;-69
2022/03/04 10:01:34;;;;;;;32.63;22.87;;;36.20;27.10;;;31.80;nan;101097.59;4971077;28;20724;-69
2022/03/04 10:04:06;;;;;;;26.47;20.37;;;35.40;27.30;;;31.88;nan;101102.63;4971752;28;20633;-69
2022/03/04 10:06:38;;;;;;;30.30;21.77;;;35.50;27.30;;;31.91;nan;101102.16;4975739;28;20647;-71
2022/03/04 10:09:06;;;;;;;26.17;20.43;;;35.50;27.10;;;31.91;nan;101102.16;5010079;28;20665;-71
2022/03/04 10:11:36;;;;;;;26.90;19.73;;;36.20;26.80;;;31.73;nan;101099.59;4982843;28;20656;-70
2022/03/04 10:14:09;;;;;;;29.97;23.43;;;36.10;26.80;;;30.25;nan;101091.84;5003041;28;20664;-70
2022/03/04 10:16:42;;;;;;;25.50;20.30;;;34.10;27.00;;;30.34;nan;101094.03;4976635;28;20639;-70
2022/03/04 10:19:19;;;;;;;24.73;18.60;;;34.40;26.80;;;29.30;nan;101095.19;4958202;28;20650;-70
2022/03/04 10:22:01;;;;;;;27.23;21.67;;;33.90;26.70;;;31.84;nan;101092.53;4993061;28;20852;-70
2022/03/04 10:24:36;;;;;;;26.37;19.70;;;35.10;26.90;;;32.63;nan;101103.31;4975653;28;20642;-71
2022/03/04 10:27:09;;;;;;;24.93;17.77;;;36.00;26.70;;;31.56;nan;101103.28;4958274;28;20610;-70